Nearby METAR Reports

 

KRYN - Tucson/Ryan Fld, Arizona, USA
Distance from station: SSW 16mi, 26km
Updated: Mon, 16-Oct-2017 7:45pm MST
NOT Current
Clear
Clear
 Wind from calm
Wind: Calm
Temperature: 84°F , 29°C
Dew Point: 43°F , 6°C
Humidity: 23%
Barometer: 30.09 inHg , 1019 hPa
Clouds: Clear
Visibility: 10 miles , 16 km
2017/10/17 02:45 KRYN 170245Z 00000KT 10SM CLR 29/06 A3009 RMK LAST
KTUS - Tucson, Arizona, USA
Distance from station: SSE 18mi, 28km
Updated: Tue, 17-Oct-2017 3:53am MST
Clear
Clear
 Wind from E
Wind: E 12 mph , 19 km/h
Temperature: 77°F , 25°C
Dew Point: 46°F , 8°C
Humidity: 34%
Barometer: 30.09 inHg , 1019 hPa
Clouds: Clear
Visibility: 10 miles , 16 km
2017/10/17 10:53 KTUS 171053Z 10010KT 10SM CLR 25/08 A3009 RMK AO2 SLP141 T02500078
 
KDMA - Davis/Tucson, Arizona, USA
Distance from station: SE 18mi, 29km
Updated: Tue, 17-Oct-2017 3:58am MST
Clear
Clear
 Wind from SE
Wind: SE 3 mph , 6 km/h
Temperature: 75°F , 24°C
Dew Point: 43°F , 6°C
Humidity: 31%
Barometer: 30.08 inHg , 1018.6 hPa
Clouds: Clear
Visibility: 10 miles , 16 km
2017/10/17 10:58 KDMA 171058Z 14003KT 10SM CLR 24/06 A3008 RMK AO2A SLP136 WND DATA ESTMD ALSTG/SLP ESTMD $
KCGZ - Casa Granda, Arizona, USA
Distance from station: NW 57mi, 92km
Updated: Sat, 16-Sep-2017 8:56pm MST
NOT Current
Clear
Clear
 Wind from W
Wind: W 8 mph , 13 km/h
Temperature: 84°F , 29°C
Dew Point: 46°F , 8°C
Humidity: 27%
Barometer: 29.83 inHg , 1010.2 hPa
Clouds: Clear
Visibility: 10 miles , 16 km
2017/09/17 03:56 KCGZ 170356Z AUTO 27007KT 10SM CLR 29/08 A2983 RMK AO2 SLP086 T02940083 PNO $
 
KALK - Pioneer Airfield, Arizona, USA
Distance from station: SE 65mi, 104km
Updated: Tue, 17-Oct-2017 3:56am MST
Clear
Clear
 Wind from E
Wind: E 3 mph , 6 km/h
Temperature: 61°F , 16°C
Dew Point: 45°F , 7°C
Humidity: 55%
Barometer: 30.26 inHg , 1024.7 hPa
Clouds: Clear
Visibility: 10 miles , 16 km
2017/10/17 10:56 KALK 171056Z AUTO 08003KT 10SM CLR 16/07 A3026 RMK AO2 SLP158 T01610067 $
KOLS - Nogales, Arizona, USA
Distance from station: S 67mi, 108km
Updated: Tue, 17-Oct-2017 3:54am MST
Clear
Clear
 Wind from NNE
Wind: NNE 6 mph , 9 km/h
Temperature: 63°F , 17°C
Dew Point: 46°F , 8°C
Humidity: 56%
Barometer: 30.16 inHg , 1021.3 hPa
Clouds: Clear
Visibility: 10 miles , 16 km
2017/10/17 10:54 KOLS 171054Z AUTO 03005KT 10SM CLR 17/08 A3016 RMK AO2 SLP147 T01720083 TSNO
 
KFHU - Fort Huachuca, Arizona, USA
Distance from station: SE 69mi, 110km
Updated: Tue, 17-Oct-2017 3:58am MST
Clear
Clear
 Wind from calm
Wind: Calm
Temperature: 61°F , 16°C
Dew Point: 43°F , 6°C
Humidity: 52%
Barometer: 30.25 inHg , 1024.4 hPa
Clouds: Clear
Visibility: 10 miles , 16 km
2017/10/17 10:58 KFHU 171058Z AUTO 00000KT 10SM CLR 16/06 A3025 RMK AO2 SLP174 T01560064
KIWA - Chandler/Mesa, Arizona, USA
Distance from station: NNW 73mi, 117km
Updated: Tue, 17-Oct-2017 3:55am MST
Clear
Clear
 Wind from SE
Wind: SE 3 mph , 6 km/h
Temperature: 66°F , 19°C
Dew Point: 41°F , 5°C
Humidity: 40%
Barometer: 30.02 inHg , 1016.6 hPa
Clouds: Clear
Visibility: 10 miles , 16 km
2017/10/17 10:55 KIWA 171055Z AUTO 14003KT 10SM CLR 19/05 A3002 RMK AO2